createdAt,value
2019-04-26T00:04:16.243Z,80.89
2019-04-26T00:07:03.259Z,81.24
2019-04-26T00:10:07.440Z,81.35
2019-04-26T00:13:12.599Z,81.98
2019-04-26T00:16:36.403Z,81.41
2019-04-26T00:18:44.403Z,83.07
2019-04-26T00:22:39.902Z,83.25
2019-04-26T00:24:38.445Z,83.80
2019-04-26T00:27:21.302Z,82.63
2019-04-26T00:29:58.880Z,82.86
2019-04-26T00:32:27.594Z,83.83
2019-04-26T00:34:56.312Z,84.40
2019-04-26T00:37:25.026Z,84.74
2019-04-26T00:39:53.630Z,84.92
2019-04-26T00:42:22.729Z,84.84
2019-04-26T00:44:51.486Z,85.00
2019-04-26T00:47:21.151Z,84.94
2019-04-26T00:49:50.392Z,84.75
2019-04-26T00:52:19.569Z,84.02
2019-04-26T00:54:48.378Z,83.87
2019-04-26T00:57:18.281Z,85.51
2019-04-26T00:59:47.880Z,86.25
2019-04-26T01:02:22.820Z,85.74
2019-04-26T01:04:51.532Z,86.17
2019-04-26T01:07:21.164Z,86.70
2019-04-26T01:09:50.173Z,86.93
2019-04-26T01:12:19.714Z,86.82
2019-04-26T01:14:48.473Z,87.17
2019-04-26T01:17:18.600Z,87.78
2019-04-26T01:19:49.119Z,86.79
2019-04-26T01:22:21.806Z,87.50
2019-04-26T01:24:50.673Z,88.11
2019-04-26T01:27:21.317Z,88.31
2019-04-26T01:29:51.871Z,87.99
2019-04-26T01:32:21.987Z,88.34
2019-04-26T01:34:51.985Z,88.60
2019-04-26T01:37:20.773Z,89.12
2019-04-26T01:39:54.876Z,89.13
2019-04-26T01:42:36.597Z,88.46
2019-04-26T01:45:14.261Z,88.06
2019-04-26T01:47:43.270Z,88.71
2019-04-26T01:50:12.977Z,89.35
2019-04-26T01:52:43.012Z,89.87
2019-04-26T01:55:12.535Z,89.50
2019-04-26T01:57:41.719Z,90.00
2019-04-26T02:00:32.038Z,90.14
2019-04-26T02:03:04.255Z,90.30
2019-04-26T02:05:32.955Z,89.92
2019-04-26T02:08:01.632Z,89.69
2019-04-26T02:10:30.716Z,89.33
2019-04-26T02:13:00.886Z,89.64
2019-04-26T02:15:33.356Z,89.43
2019-04-26T02:18:02.520Z,89.41
2019-04-26T02:20:50.558Z,89.60
2019-04-26T02:23:26.367Z,90.25
2019-04-26T02:25:55.118Z,90.15
2019-04-26T02:28:25.533Z,89.93
2019-04-26T02:30:54.659Z,89.45
2019-04-26T02:33:25.299Z,89.83
2019-04-26T02:35:54.394Z,90.07
2019-04-26T02:38:23.086Z,89.72
2019-04-26T02:40:52.562Z,90.03
2019-04-26T02:43:23.010Z,90.19
2019-04-26T02:46:16.797Z,90.47
2019-04-26T02:49:07.924Z,90.53
2019-04-26T02:51:41.363Z,90.61
2019-04-26T02:54:18.866Z,89.91
2019-04-26T02:56:48.793Z,89.18
2019-04-26T02:59:32.455Z,88.48
2019-04-26T03:02:03.745Z,89.17
2019-04-26T03:04:34.619Z,89.26
2019-04-26T03:07:09.499Z,89.10
2019-04-26T03:09:40.229Z,89.36
2019-04-26T03:12:13.259Z,89.07
2019-04-26T03:15:12.777Z,88.89
2019-04-26T03:17:45.831Z,88.76
2019-04-26T03:20:16.408Z,89.29
2019-04-26T03:22:53.267Z,90.02
2019-04-26T03:25:40.655Z,89.96
2019-04-26T03:28:24.220Z,89.98
2019-04-26T03:31:04.794Z,90.12
2019-04-26T03:34:34.277Z,89.78
2019-04-26T03:37:56.375Z,89.80
2019-04-26T03:40:44.654Z,90.18
2019-04-26T03:43:34.326Z,90.46
2019-04-26T03:46:33.581Z,89.32
2019-04-26T03:49:47.056Z,89.88
2019-04-26T03:52:36.974Z,88.63
2019-04-26T03:55:29.432Z,89.50
2019-04-26T03:58:04.218Z,88.83
2019-04-26T04:00:43.397Z,89.02
2019-04-26T04:03:48.214Z,88.01
2019-04-26T04:06:23.188Z,88.00
2019-04-26T04:08:59.887Z,88.11
2019-04-26T04:11:37.499Z,89.29
2019-04-26T04:14:19.225Z,88.51
2019-04-26T04:17:06.438Z,88.99
2019-04-26T04:20:11.070Z,89.51
2019-04-26T04:22:45.838Z,89.55
2019-04-26T04:25:19.256Z,87.89
2019-04-26T04:27:58.645Z,88.75
2019-04-26T04:30:53.344Z,88.51
2019-04-26T04:33:29.153Z,88.87
2019-04-26T04:36:03.959Z,88.37
2019-04-26T04:38:53.509Z,88.34
2019-04-26T04:41:41.048Z,88.47
2019-04-26T04:44:22.465Z,88.31
2019-04-26T04:47:31.629Z,88.31
2019-04-26T04:50:16.544Z,88.60
2019-04-26T04:53:26.149Z,90.30
2019-04-26T04:56:36.031Z,91.10
2019-04-26T04:59:10.458Z,93.81
2019-04-26T05:02:35.085Z,94.91
2019-04-26T05:05:39.976Z,94.72
2019-04-26T05:08:18.179Z,95.70
2019-04-26T05:10:56.235Z,98.01
2019-04-26T05:13:46.280Z,98.82
2019-04-26T05:16:44.967Z,98.36
2019-04-26T05:19:48.533Z,98.11
2019-04-26T05:23:02.177Z,99.31
2019-04-26T05:26:25.761Z,99.40
2019-04-26T05:29:46.581Z,100.00
2019-04-26T05:32:52.909Z,100.00
2019-04-26T05:35:51.045Z,100.00
2019-04-26T05:39:06.912Z,100.00
2019-04-26T05:42:10.455Z,100.00
2019-04-26T05:45:35.007Z,100.00
2019-04-26T05:48:35.226Z,100.00
2019-04-26T05:51:46.011Z,100.00
2019-04-26T05:55:06.965Z,100.00
2019-04-26T05:58:07.339Z,100.00
2019-04-26T06:01:08.711Z,100.00
2019-04-26T06:04:28.360Z,100.00
2019-04-26T06:07:15.761Z,100.00
2019-04-26T06:10:18.944Z,100.00
2019-04-26T06:13:29.792Z,100.00
2019-04-26T06:16:23.264Z,100.00
2019-04-26T06:19:09.783Z,100.00
2019-04-26T06:21:57.916Z,100.00
2019-04-26T06:24:53.976Z,100.00
2019-04-26T06:28:00.597Z,100.00
2019-04-26T06:30:54.407Z,100.00
2019-04-26T06:33:49.911Z,100.00
2019-04-26T06:36:25.969Z,100.00
2019-04-26T06:39:20.253Z,100.00
2019-04-26T06:42:13.484Z,100.00
2019-04-26T06:45:40.033Z,100.00
2019-04-26T06:48:21.371Z,100.00
2019-04-26T06:50:59.809Z,100.00
2019-04-26T06:53:57.145Z,100.00
2019-04-26T06:57:10.589Z,100.00
2019-04-26T07:00:16.477Z,100.00
2019-04-26T07:03:23.348Z,100.00
2019-04-26T07:05:59.035Z,100.00
2019-04-26T07:09:00.560Z,100.00
2019-04-26T07:12:27.763Z,100.00
2019-04-26T07:16:16.479Z,100.00
2019-04-26T07:19:34.798Z,100.00
2019-04-26T07:22:40.597Z,100.00
2019-04-26T07:25:55.781Z,100.00
2019-04-26T07:29:11.172Z,100.00
2019-04-26T07:32:00.785Z,100.00
2019-04-26T07:35:09.776Z,100.00
2019-04-26T07:39:10.561Z,100.00
2019-04-26T07:42:21.102Z,100.00
2019-04-26T07:45:56.768Z,100.00
2019-04-26T07:49:36.781Z,100.00
2019-04-26T07:52:43.876Z,100.00
2019-04-26T07:55:49.270Z,100.00
2019-04-26T07:59:51.215Z,100.00
2019-04-26T08:02:51.602Z,100.00
2019-04-26T08:05:46.534Z,100.00
2019-04-26T08:08:28.760Z,100.00
2019-04-26T08:11:34.741Z,100.00
2019-04-26T08:14:12.591Z,100.00
2019-04-26T08:20:36.767Z,100.00
2019-04-26T08:23:14.566Z,100.00
2019-04-26T08:25:39.006Z,100.00
2019-04-26T08:28:09.969Z,100.00
2019-04-26T08:30:44.921Z,100.00
2019-04-26T08:33:16.109Z,100.00
2019-04-26T08:35:48.937Z,100.00
2019-04-26T08:38:22.312Z,100.00
2019-04-26T08:40:48.454Z,100.00
2019-04-26T08:43:27.324Z,100.00
2019-04-26T08:46:16.968Z,100.00
2019-04-26T08:49:02.161Z,100.00
2019-04-26T08:51:31.726Z,100.00
2019-04-26T08:54:01.424Z,100.00
2019-04-26T08:56:33.923Z,100.00
2019-04-26T08:59:08.906Z,100.00
2019-04-26T09:01:46.686Z,100.00
2019-04-26T09:04:30.663Z,100.00
2019-04-26T09:07:10.965Z,100.00
2019-04-26T09:09:41.281Z,100.00
2019-04-26T09:12:22.486Z,100.00
2019-04-26T09:14:47.534Z,100.00
2019-04-26T09:17:16.331Z,100.00
2019-04-26T09:19:45.060Z,100.00
2019-04-26T09:22:22.627Z,100.00
2019-04-26T09:24:59.499Z,100.00
2019-04-26T09:27:38.652Z,100.00
2019-04-26T09:30:34.395Z,100.00
2019-04-26T09:33:10.500Z,100.00
2019-04-26T09:35:39.421Z,100.00
2019-04-26T09:38:08.204Z,100.00
2019-04-26T09:40:36.811Z,100.00
2019-04-26T09:43:20.039Z,100.00
2019-04-26T09:46:04.893Z,100.00
2019-04-26T09:48:37.484Z,100.00
2019-04-26T09:51:06.775Z,100.00
2019-04-26T09:53:35.415Z,100.00
2019-04-26T09:56:04.170Z,99.45
2019-04-26T09:58:32.969Z,100.00
2019-04-26T10:01:01.747Z,100.00
2019-04-26T10:03:30.522Z,100.00
2019-04-26T10:05:59.234Z,100.00
2019-04-26T10:08:27.859Z,100.00
2019-04-26T10:10:56.509Z,100.00
2019-04-26T10:13:32.839Z,100.00
2019-04-26T10:16:33.507Z,100.00
2019-04-26T10:19:08.355Z,100.00
2019-04-26T10:21:36.986Z,100.00
2019-04-26T10:24:08.186Z,100.00
2019-04-26T10:26:36.130Z,100.00
2019-04-26T10:29:05.116Z,100.00
2019-04-26T10:31:33.784Z,100.00
2019-04-26T10:34:02.676Z,100.00
2019-04-26T10:36:31.523Z,100.00
2019-04-26T10:39:01.435Z,100.00
2019-04-26T10:41:30.226Z,100.00
2019-04-26T10:43:58.891Z,100.00
2019-04-26T10:46:28.290Z,100.00
2019-04-26T10:49:08.286Z,100.00
2019-04-26T10:51:38.586Z,100.00
2019-04-26T10:54:16.194Z,100.00
2019-04-26T10:56:59.235Z,100.00
2019-04-26T10:59:45.918Z,99.94
2019-04-26T11:02:17.912Z,100.00
2019-04-26T11:04:47.761Z,100.00
2019-04-26T11:07:16.557Z,100.00
2019-04-26T11:09:45.337Z,100.00
2019-04-26T11:12:15.714Z,100.00
2019-04-26T11:14:44.539Z,98.05
2019-04-26T11:17:16.036Z,98.71
2019-04-26T11:19:45.951Z,99.69
2019-04-26T11:22:14.701Z,98.63
2019-04-26T11:24:43.430Z,98.41
2019-04-26T11:27:12.312Z,98.17
2019-04-26T11:29:40.871Z,98.14
2019-04-26T11:32:09.762Z,98.54
2019-04-26T11:34:38.394Z,97.80
2019-04-26T11:37:08.380Z,98.05
2019-04-26T11:39:40.492Z,98.34
2019-04-26T11:42:07.919Z,98.59
2019-04-26T11:45:17.316Z,97.62
2019-04-26T11:47:55.806Z,97.50
2019-04-26T11:50:17.850Z,96.75
2019-04-26T11:53:47.769Z,95.10
2019-04-26T11:56:20.405Z,96.12
2019-04-26T11:58:52.425Z,96.81
2019-04-26T12:01:21.486Z,95.39
2019-04-26T12:04:07.802Z,93.50
2019-04-26T12:06:49.177Z,92.75
2019-04-26T12:09:31.160Z,95.09
2019-04-26T12:12:22.349Z,94.21
2019-04-26T12:14:54.783Z,91.90
2019-04-26T12:17:23.509Z,92.32
2019-04-26T12:19:53.327Z,94.67
2019-04-26T12:22:22.146Z,92.47
2019-04-26T12:24:51.015Z,90.55
2019-04-26T12:27:19.892Z,91.73
2019-04-26T12:29:49.817Z,92.60
2019-04-26T12:32:18.803Z,90.21
2019-04-26T12:34:47.487Z,90.99
2019-04-26T12:37:19.891Z,90.69
2019-04-26T12:39:46.739Z,92.00
2019-04-26T12:42:21.746Z,93.62
2019-04-26T12:48:45.958Z,92.48
2019-04-26T12:51:28.592Z,93.32
2019-04-26T12:57:18.086Z,92.32
2019-04-26T13:00:03.678Z,93.54
2019-04-26T13:02:32.481Z,93.29
2019-04-26T13:05:01.550Z,94.29
2019-04-26T13:07:33.494Z,94.95
2019-04-26T13:10:37.814Z,93.31
2019-04-26T13:13:22.163Z,91.15
2019-04-26T13:16:26.299Z,92.70
2019-04-26T13:20:24.353Z,91.71
2019-04-26T13:22:59.387Z,91.00
2019-04-26T13:25:39.998Z,92.68
2019-04-26T14:32:53.116Z,79.93
2019-04-26T14:35:57.968Z,82.24
2019-04-26T14:41:58.306Z,81.83
2019-04-26T14:44:27.072Z,81.51
2019-04-26T14:47:13.926Z,80.91
2019-04-26T15:06:57.885Z,81.84
2019-04-26T15:09:29.699Z,81.22
2019-04-26T15:12:46.186Z,83.06
2019-04-26T15:15:09.207Z,82.02
2019-04-26T15:18:00.738Z,83.24
2019-04-26T15:21:22.831Z,79.32
2019-04-26T15:24:02.885Z,81.23
2019-04-26T15:26:32.756Z,81.94
2019-04-26T15:29:26.760Z,79.60
2019-04-26T15:31:53.784Z,78.78
2019-04-26T15:34:23.637Z,80.55
2019-04-26T15:36:54.981Z,79.55
2019-04-26T15:39:39.849Z,81.97
2019-04-26T15:42:31.476Z,80.12
2019-04-26T15:45:25.034Z,79.67
2019-04-26T15:48:08.437Z,80.91
2019-04-26T15:50:48.467Z,79.18
2019-04-26T15:53:23.989Z,80.46
2019-04-26T15:56:05.599Z,80.17
2019-04-26T15:58:38.671Z,80.91
2019-04-26T16:01:13.883Z,78.09
2019-04-26T16:03:49.690Z,76.83
2019-04-26T16:06:20.258Z,79.23
2019-04-26T16:08:49.118Z,79.61
2019-04-26T16:11:19.990Z,78.47
2019-04-26T16:13:52.200Z,79.75
2019-04-26T16:16:20.649Z,79.75
2019-04-26T16:18:53.965Z,78.75
2019-04-26T16:21:22.089Z,78.88
2019-04-26T16:23:55.354Z,78.88
2019-04-26T16:26:23.530Z,77.04
2019-04-26T16:29:24.419Z,77.04
2019-04-26T16:32:12.503Z,75.61
2019-04-26T16:34:47.542Z,78.15
2019-04-26T16:37:14.963Z,76.90
2019-04-26T16:39:48.406Z,80.15
2019-04-26T16:42:15.698Z,76.96
2019-04-26T16:44:45.046Z,77.59
2019-04-26T16:48:06.448Z,78.45
2019-04-26T16:50:44.299Z,77.99
2019-04-26T16:53:23.214Z,76.56
2019-04-26T16:55:49.225Z,78.57
2019-04-26T16:58:08.614Z,78.35
2019-04-26T17:00:50.142Z,79.60
2019-04-26T17:03:08.221Z,80.84
2019-04-26T17:05:47.762Z,79.85
2019-04-26T17:08:10.177Z,79.27
2019-04-26T17:10:38.110Z,79.75
2019-04-26T17:13:06.895Z,80.29
2019-04-26T17:15:35.696Z,80.43
2019-04-26T17:18:04.525Z,80.65
2019-04-26T17:20:33.998Z,81.25
2019-04-26T17:23:18.944Z,81.38
2019-04-26T17:26:22.430Z,80.98
2019-04-26T17:28:52.181Z,80.40
2019-04-26T17:31:22.838Z,81.30
2019-04-26T17:33:51.799Z,79.63
2019-04-26T17:36:20.581Z,80.10
2019-04-26T17:38:50.563Z,80.29
2019-04-26T17:41:19.531Z,80.29
2019-04-26T17:43:52.101Z,79.75
2019-04-26T17:46:19.992Z,80.40
2019-04-26T17:48:50.629Z,81.80
2019-04-26T17:51:22.959Z,82.36
2019-04-26T17:53:58.749Z,81.82
2019-04-26T17:56:21.499Z,81.69
2019-04-26T17:58:54.250Z,81.55
2019-04-26T18:01:39.881Z,81.55
2019-04-26T18:03:55.604Z,81.82
2019-04-26T18:06:29.457Z,81.60
2019-04-26T18:08:54.977Z,82.30
2019-04-26T18:11:24.928Z,82.00
2019-04-26T18:13:53.221Z,81.81
2019-04-26T18:16:25.071Z,83.88
2019-04-26T18:19:12.751Z,84.54
2019-04-26T18:21:56.544Z,84.92
2019-04-26T18:24:23.460Z,84.51
2019-04-26T18:26:58.907Z,84.43
2019-04-26T18:29:25.201Z,84.61
2019-04-26T18:31:53.622Z,83.79
2019-04-26T18:34:23.186Z,83.48
2019-04-26T18:36:51.824Z,84.81
2019-04-26T18:39:22.834Z,84.27
2019-04-26T18:41:50.828Z,85.23
2019-04-26T18:44:19.513Z,85.35
2019-04-26T18:46:53.650Z,85.34
2019-04-26T18:49:24.597Z,84.93
2019-04-26T18:51:52.677Z,85.25
2019-04-26T18:54:29.766Z,85.26
2019-04-26T18:57:00.167Z,86.51
2019-04-26T18:59:28.802Z,87.44
2019-04-26T19:01:57.542Z,87.59
2019-04-26T19:04:26.170Z,88.45
2019-04-26T19:06:54.862Z,88.25
2019-04-26T19:09:26.312Z,88.15
2019-04-26T19:11:56.223Z,88.07
2019-04-26T19:14:49.313Z,89.26
2019-04-26T19:17:18.390Z,91.13
2019-04-26T19:20:11.539Z,91.73
2019-04-26T19:22:41.561Z,91.72
2019-04-26T19:25:20.911Z,91.57
2019-04-26T19:27:48.192Z,93.52
2019-04-26T19:30:12.741Z,93.67
2019-04-26T19:32:41.511Z,93.39
2019-04-26T19:35:13.867Z,93.09
2019-04-26T19:37:40.548Z,93.13
2019-04-26T19:40:10.703Z,92.70
2019-04-26T19:42:39.777Z,92.37
2019-04-26T19:45:16.666Z,92.99
2019-04-26T19:48:03.134Z,93.88
2019-04-26T19:50:42.040Z,94.36
2019-04-26T19:53:28.298Z,95.06
2019-04-26T19:56:27.491Z,95.32
2019-04-26T19:58:57.604Z,95.13
2019-04-26T20:01:24.794Z,95.56
2019-04-26T20:03:55.322Z,95.03
2019-04-26T20:06:26.665Z,95.82
2019-04-26T20:08:55.215Z,95.49
2019-04-26T20:11:23.950Z,96.82
2019-04-26T20:13:55.203Z,96.63
2019-04-26T20:16:25.811Z,96.18
2019-04-26T20:18:54.058Z,96.31
2019-04-26T20:21:22.782Z,96.55
2019-04-26T20:23:54.207Z,96.71
2019-04-26T20:26:22.578Z,96.39
2019-04-26T20:28:51.549Z,96.25
2019-04-26T20:31:37.543Z,96.73
2019-04-26T20:34:10.950Z,96.46
2019-04-26T20:36:47.342Z,97.76
2019-04-26T20:39:38.636Z,97.77
2019-04-26T20:42:13.354Z,98.80
2019-04-26T20:45:11.342Z,97.69
2019-04-26T20:47:41.691Z,96.64
2019-04-26T20:50:47.418Z,97.27
2019-04-26T20:53:48.968Z,97.90
2019-04-26T20:56:28.928Z,97.97
2019-04-26T21:00:01.948Z,97.95
2019-04-26T21:05:46.083Z,97.79
2019-04-26T21:10:00.941Z,97.84
2019-04-26T21:11:59.054Z,97.74
2019-04-26T21:15:15.676Z,97.87
2019-04-26T21:17:51.974Z,98.36
2019-04-26T21:20:36.232Z,98.74
2019-04-26T21:23:04.321Z,96.95
2019-04-26T21:26:21.714Z,94.84
2019-04-26T21:29:07.588Z,95.32
2019-04-26T21:32:04.394Z,94.17
2019-04-26T21:34:44.430Z,93.19
2019-04-26T21:40:43.761Z,93.69
2019-04-26T21:46:20.191Z,93.64
2019-04-26T21:49:51.852Z,93.13
2019-04-26T21:55:32.168Z,94.35
2019-04-26T21:58:29.328Z,94.17
2019-04-26T22:01:37.008Z,94.33
2019-04-26T22:03:58.505Z,93.79
2019-04-26T22:10:29.709Z,94.52
2019-04-26T22:14:37.286Z,95.07
2019-04-26T22:16:33.380Z,96.43
2019-04-26T22:19:35.248Z,96.97
2019-04-26T22:22:49.361Z,96.55
2019-04-26T22:25:20.323Z,97.08
2019-04-26T22:28:19.611Z,97.96
2019-04-26T22:31:15.876Z,98.39
2019-04-26T22:34:07.354Z,99.03
2019-04-26T22:37:01.283Z,99.17
2019-04-26T22:39:57.831Z,98.75
2019-04-26T22:43:34.020Z,98.37
2019-04-26T22:50:38.414Z,99.46
2019-04-26T22:54:12.532Z,100.00
2019-04-26T22:57:03.917Z,100.00
2019-04-26T23:06:56.677Z,100.00
2019-04-26T23:09:59.487Z,100.00
2019-04-26T23:13:14.262Z,100.00
2019-04-26T23:16:18.362Z,100.00
2019-04-26T23:19:19.275Z,100.00
2019-04-26T23:22:07.240Z,100.00
2019-04-26T23:24:54.543Z,100.00
2019-04-26T23:27:44.120Z,100.00
2019-04-26T23:30:23.315Z,100.00
2019-04-26T23:33:44.594Z,100.00
2019-04-26T23:36:29.542Z,100.00
2019-04-26T23:40:05.895Z,100.00
2019-04-26T23:45:47.901Z,100.00
2019-04-26T23:48:17.625Z,100.00
2019-04-26T23:51:50.613Z,100.00
2019-04-26T23:54:36.146Z,100.00
2019-04-26T23:58:00.030Z,100.00
